Terminal Aerodrome Forecast
Issued by NWS

Home | Current Version | Previous Version | Text Only | Print | Product List | Glossary On
Versions: 1 2 3 4 5 6 7 8 9 10 11 12 13 14 15
000
FTUS43 KICT 012300
TAFCNU
TAF
KCNU 012328Z 0200/0224 18007KT P6SM VCTS SCT025 BKN040CB
     FM020600 17008KT P6SM VCTS SCT015 OVC030CB
     FM021900 34010KT P6SM VCSH OVC030=

USA.gov is the U.S. government's official web portal to all federal, state and local government web resources and services.